Terminal Aerodrome Forecast
Issued by NWS Wilmington, OH

Current Version | Previous Version | Graphics & Text | Print | Product List | Glossary On
Versions: 1 2 3 4 5 6 7 8 9 10 11 12 13 14 15 16 17 18 19 20 21 22 23
444
FTUS41 KILN 212339
TAFILN
TAF
KILN 212339Z 2200/2224 29006KT P6SM VCSH SCT050 OVC250
      TEMPO 2200/2202 -SHRA BKN060
     FM220300 23004KT P6SM OVC250
     FM221100 24006KT P6SM VCTS SCT040 BKN120CB
     FM221800 24011KT P6SM SCT040 BKN200=

USA.gov is the U.S. government's official web portal to all federal, state and local government web resources and services.